Flight Track Log - Related Links

Times and Time Zones

All times are in EDT time to prevent confusion due to time zone crossing. See the AWI4036 flight status page for this flight to view local times or setup timezone preferences in your user account.

Time Position Orientation Groundspeed Altitude Reporting Facility
EDT Latitude Longitude Course Direction KTS MPH feet Rate Location/Type
Sat 06:16:49 AM 38.8167 -77.0333 72° East 178 205 1,600  Level Potomac TRACON
Sat 06:17:32 AM 38.7667 -77.0333 180° South 206 237 3,400 2,147 Climbing Potomac TRACON
Sat 06:18:38 AM 38.7667 -76.9500 90° East 258 297 5,500 2,286 Climbing Potomac TRACON
Sat 06:19:00 AM 38.9167 -76.7508 90° East  Level FlightAware Approximate
Sat 06:19:38 AM 38.8167 -76.8667 52° Northeast 280 322 8,200  Level Potomac TRACON
Sat 06:20:00 AM 38.9359 -76.6758 67° East  Level FlightAware Approximate
Sat 06:20:50 AM 38.8667 -76.7500 61° Northeast 304 350 10,900  Level Potomac TRACON
Sat 06:21:00 AM 38.9604 -76.6021 67° East  Level FlightAware Approximate
Sat 06:21:38 AM 38.9000 -76.6667 63° Northeast 320 368 11,000  Level Potomac TRACON
Sat 06:22:00 AM 38.9809 -76.5265 72° East  Level FlightAware Approximate
Sat 06:22:38 AM 38.9500 -76.5667 57° Northeast 331 381 11,000  Level Potomac TRACON
Sat 06:23:38 AM 39.0167 -76.4833 44° Northeast 316 364 11,000  Level Potomac TRACON
Sat 06:24:38 AM 39.0667 -76.4167 46° Northeast 313 360 11,000  Level Potomac TRACON
Sat 06:25:26 AM 39.1167 -76.3500 46° Northeast 306 352 11,000 -176 Level Potomac TRACON
Sat 06:26:20 AM 39.1667 -76.2833 46° Northeast 300 345 10,700 -421 Descending Potomac TRACON
Sat 06:27:20 AM 39.2333 -76.2000 44° Northeast 303 349 10,200 -522 Descending Potomac TRACON
Sat 06:28:15 AM 39.2833 -76.1333 46° Northeast 300 345 9,700 -471 Descending Potomac TRACON
Sat 06:29:53 AM 39.3667 -76.0167 47° Northeast 292 336 9,000 -266 Descending Philadelphia TRACON
Sat 06:30:53 AM 39.4333 -75.9333 44° Northeast 297 342 9,000  Level Philadelphia TRACON
Sat 06:31:53 AM 39.4500 -75.8333 78° East 289 333 9,000 -500 Level Philadelphia TRACON
Sat 06:32:53 AM 39.4667 -75.7167 79° East 289 333 8,000 -1,000 Descending Philadelphia TRACON
Sat 06:33:53 AM 39.4667 -75.6333 90° East 285 328 7,000 -500 Descending Philadelphia TRACON
Sat 06:34:53 AM 39.4833 -75.5333 78° East 272 313 7,000  Level Philadelphia TRACON
Sat 06:35:47 AM 39.5000 -75.4333 78° East 279 321 7,000 -684 Level Philadelphia TRACON
Sat 06:36:47 AM 39.5167 -75.3500 75° East 270 311 5,700 -1,150 Descending Philadelphia TRACON
Sat 06:37:47 AM 39.5333 -75.2500 78° East 254 292 4,700 -850 Descending Philadelphia TRACON
Sat 06:38:47 AM 39.5667 -75.1667 63° Northeast 249 287 4,000 -350 Descending Philadelphia TRACON
Sat 06:39:47 AM 39.6167 -75.1333 27° Northeast 239 275 4,000 -211 Level Philadelphia TRACON
Sat 06:40:41 AM 39.6667 -75.1333 360° North 201 231 3,600 -550 Descending Philadelphia TRACON
Sat 06:41:47 AM 39.7333 -75.1500 349° North 177 204 2,900 -636 Descending Philadelphia TRACON
Sat 06:42:53 AM 39.7667 -75.1833 322° Northwest 144 166 2,200 -700 Descending Philadelphia TRACON
Sat 06:43:47 AM 39.8000 -75.2000 339° North 151 174 1,500 -850 Descending Philadelphia TRACON
Sat 06:44:53 AM 39.8500 -75.2167 346° North 139 160 500 -909 Descending Philadelphia TRACON

Login

Don't have an account? Register now (free) for customized features, flight alerts, and more!